CYYJ - Victoria Intl

Pirep is a free, collaborative database of all public and private airports located within the United States. All pilots are welcome to contribute, edit, and improve any airport they have local knowledge about, no registration required.
Uploaded photos will be licensed under a CC BY-SA 4.0 license. Please only upload photos you have the rights to use.
Tags
Public
Food
Car Rental
Museum
METAR / TAF
Edit Tags
Camping
Lodging
Bicycles
Swimming
Golfing
Fishing
Hot Springs
Flying Clubs
Airpark
Upcoming Events
No upcoming events. Is anything happening here soon?
*
*
*

Where exactly on/near the airport is this event taking place?

Is there a webpage with more information for this event?

Who should be contacted for more information?

What is this event all about?

Repeat every
Description
Last updated: 2023-05-30 21:00:20 PDT
Transient Parking
Fuel Location
Landing & Tie-down Fees
Crew Car Availability
Flying Clubs
WiFi Access
Airport Statistics
Location: Victoria, CN
Elevation: 64ft
Activation date: Apr 2005
Fuel: 100LL, A1 (prices)
Runway 09/27: 6,998ft
Runway 03/21: 5,026ft
Runway 13/31: 5,001ft
Access: Open to the public
This airport is privately owned but open to the public.
Current Weather — VFR
  • Weather data is strictly informational and not for flight planning purposes.
  • METAR
    2024-04-21 23:00:00 PDT
    Ceiling Wind Temperature Dewpoint Weather Visbility
    Sky clear 290° @ 8kt 46°F 39°F N/A 30SM
    Clouds: @ ft
    Raw: CYYJ 220600Z 29008KT 30SM SKC 08/04 A3029 RMK SLP261
  • TAF
    2024-04-21 23:00:00 PDT – 2024-04-22 03:00:00 PDT
    Ceiling Wind Weather Visbility
    Sky clear 260° @ 7kt N/A 6SM
    Clouds: Few @ 5,000ft
    Raw: TAF CYYJ 220541Z 2206/2306 26007KT P6SM FEW050 FM221000 27005KT P6SM SCT030 TEMPO 2210/2217 BKN030 FM221700 03008KT P6SM FEW060 RMK NXT FCST BY 221200Z
  • TAF
    2024-04-22 03:00:00 PDT – 2024-04-22 10:00:00 PDT
    Ceiling Wind Weather Visbility
    Sky clear 270° @ 5kt N/A 6SM
    Clouds: Scattered @ 3,000ft
    Raw: TAF CYYJ 220541Z 2206/2306 26007KT P6SM FEW050 FM221000 27005KT P6SM SCT030 TEMPO 2210/2217 BKN030 FM221700 03008KT P6SM FEW060 RMK NXT FCST BY 221200Z
  • TAF
    2024-04-22 03:00:00 PDT – 2024-04-22 10:00:00 PDT
    Ceiling Wind Weather Visbility
    3,000ft ° @ kt N/A SM
    Clouds: Broken @ 3,000ft
    Raw: TAF CYYJ 220541Z 2206/2306 26007KT P6SM FEW050 FM221000 27005KT P6SM SCT030 TEMPO 2210/2217 BKN030 FM221700 03008KT P6SM FEW060 RMK NXT FCST BY 221200Z
  • TAF
    2024-04-22 10:00:00 PDT – 2024-04-22 23:00:00 PDT
    Ceiling Wind Weather Visbility
    Sky clear 30° @ 8kt N/A 6SM
    Clouds: Few @ 6,000ft
    Raw: TAF CYYJ 220541Z 2206/2306 26007KT P6SM FEW050 FM221000 27005KT P6SM SCT030 TEMPO 2210/2217 BKN030 FM221700 03008KT P6SM FEW060 RMK NXT FCST BY 221200Z
Click/tap to add an annotation marker to the map
Airport Webcams
No webcams added yet.
Direct links to live image URLs will be displayed inline on this page. URLs to separate webpages will be linked to.
URL:
Direct links to live image URLs will be displayed inline on this page. URLs to separate webpages will be linked to.
URL:
Comments
Leave a comment What was your experience like at this airport?